Sign-in with your pilot id or email, or register

ICAO: LBBG Name / Country: Burgas Airport / Bulgaria
Latitude: 42.5696 Longitude: 27.5152
Total Arrivals:
Strict Standards: Non-static method AirportData::getarrflights() should not be called statically, assuming $this from incompatible context in /var/www/customers/vh-7192/web/home/phpvms/core/templates/airport_info.tpl on line 18
1
Total Departures:
Strict Standards: Non-static method AirportData::getdeptflights() should not be called statically, assuming $this from incompatible context in /var/www/customers/vh-7192/web/home/phpvms/core/templates/airport_info.tpl on line 21
1
Latest Arrival: MTA11P (LHBP-LBBG) Tibor Berces Latest Departure: MTA11P (LBBG-LHBP) Tibor Berces
Metar: LBBG 271030Z 25011KT 210V280 CAVOK 25/10 Q1012 NOSIG
More info

Charts for LBBG


NOTAM


Warning: file_get_contents(http://api.vateud.net/notams/LBBG.json): failed to open stream: Redirection limit reached, aborting in /var/www/customers/vh-7192/web/home/phpvms/core/common/NOTAMSData.class.php on line 18

Warning: Invalid argument supplied for foreach() in /var/www/customers/vh-7192/web/home/phpvms/core/common/NOTAMSData.class.php on line 22

Burgas Airport